Terminal Aerodrome Forecast
Issued by NWS

Home | Current Version | Previous Version | Text Only | Print | Product List | Glossary On
Versions: 1 2 3 4 5 6 7 8 9 10 11 12 13 14 15 16 17 18 19
000
FTUS46 KSEW 220500
TAFBLI
TAF
KBLI 220528Z 2206/2306 18008KT P6SM SCT250
     FM221300 18008KT P6SM OVC009
     FM221700 18008KT P6SM OVC015
     FM222000 18012KT P6SM SCT015 OVC025
     FM222300 18012KT P6SM SCT020 BKN040=

USA.gov is the U.S. government's official web portal to all federal, state and local government web resources and services.